sensor_id;sensor_type;location;lat;lon;timestamp;temperature;humidity
56538;DHT22;42435;53.292;6.000;2023-07-22T00:00:45;14.40;80.50
56538;DHT22;42435;53.292;6.000;2023-07-22T00:03:11;14.40;80.40
56538;DHT22;42435;53.292;6.000;2023-07-22T00:05:37;14.30;80.50
56538;DHT22;42435;53.292;6.000;2023-07-22T00:08:02;14.30;80.60
56538;DHT22;42435;53.292;6.000;2023-07-22T00:10:28;14.30;80.60
56538;DHT22;42435;53.292;6.000;2023-07-22T00:12:55;14.20;80.70
56538;DHT22;42435;53.292;6.000;2023-07-22T00:15:21;14.20;80.80
56538;DHT22;42435;53.292;6.000;2023-07-22T00:17:49;14.20;80.90
56538;DHT22;42435;53.292;6.000;2023-07-22T00:20:16;14.20;81.00
56538;DHT22;42435;53.292;6.000;2023-07-22T00:22:42;14.20;81.10
56538;DHT22;42435;53.292;6.000;2023-07-22T00:25:10;14.10;81.10
56538;DHT22;42435;53.292;6.000;2023-07-22T00:27:37;14.10;81.10
56538;DHT22;42435;53.292;6.000;2023-07-22T00:30:05;14.10;81.10
56538;DHT22;42435;53.292;6.000;2023-07-22T00:32:30;14.10;81.20
56538;DHT22;42435;53.292;6.000;2023-07-22T00:34:56;14.20;81.20
56538;DHT22;42435;53.292;6.000;2023-07-22T00:37:22;14.10;81.20
56538;DHT22;42435;53.292;6.000;2023-07-22T00:39:47;14.10;81.20
56538;DHT22;42435;53.292;6.000;2023-07-22T00:42:13;14.10;81.00
56538;DHT22;42435;53.292;6.000;2023-07-22T00:44:38;14.10;81.00
56538;DHT22;42435;53.292;6.000;2023-07-22T00:47:04;14.20;81.00
56538;DHT22;42435;53.292;6.000;2023-07-22T00:49:30;14.10;80.90
56538;DHT22;42435;53.292;6.000;2023-07-22T00:52:00;14.10;80.90
56538;DHT22;42435;53.292;6.000;2023-07-22T00:54:27;14.10;81.00
56538;DHT22;42435;53.292;6.000;2023-07-22T00:56:53;14.10;81.00
56538;DHT22;42435;53.292;6.000;2023-07-22T00:59:19;14.10;80.90
56538;DHT22;42435;53.292;6.000;2023-07-22T01:01:46;14.10;80.80
56538;DHT22;42435;53.292;6.000;2023-07-22T01:04:14;14.00;80.90
56538;DHT22;42435;53.292;6.000;2023-07-22T01:06:43;14.00;80.90
56538;DHT22;42435;53.292;6.000;2023-07-22T01:09:09;14.00;80.90
56538;DHT22;42435;53.292;6.000;2023-07-22T01:11:35;14.00;80.90
56538;DHT22;42435;53.292;6.000;2023-07-22T01:14:01;14.00;80.80
56538;DHT22;42435;53.292;6.000;2023-07-22T01:16:27;14.00;80.80
56538;DHT22;42435;53.292;6.000;2023-07-22T01:18:54;14.00;80.80
56538;DHT22;42435;53.292;6.000;2023-07-22T01:21:22;13.90;80.80
56538;DHT22;42435;53.292;6.000;2023-07-22T01:23:48;13.90;80.90
56538;DHT22;42435;53.292;6.000;2023-07-22T01:26:14;13.90;80.90
56538;DHT22;42435;53.292;6.000;2023-07-22T01:28:39;13.90;80.90
56538;DHT22;42435;53.292;6.000;2023-07-22T01:31:05;13.90;80.70
56538;DHT22;42435;53.292;6.000;2023-07-22T01:33:31;13.80;80.60
56538;DHT22;42435;53.292;6.000;2023-07-22T01:35:58;13.70;80.60
56538;DHT22;42435;53.292;6.000;2023-07-22T01:38:23;13.70;80.60
56538;DHT22;42435;53.292;6.000;2023-07-22T01:40:49;13.70;80.60
56538;DHT22;42435;53.292;6.000;2023-07-22T01:43:15;13.60;80.60
56538;DHT22;42435;53.292;6.000;2023-07-22T01:45:40;13.60;80.60
56538;DHT22;42435;53.292;6.000;2023-07-22T01:48:06;13.60;80.70
56538;DHT22;42435;53.292;6.000;2023-07-22T01:50:32;13.60;80.70
56538;DHT22;42435;53.292;6.000;2023-07-22T01:52:57;13.50;80.80
56538;DHT22;42435;53.292;6.000;2023-07-22T01:55:23;13.50;80.80
56538;DHT22;42435;53.292;6.000;2023-07-22T01:57:49;13.50;80.80
56538;DHT22;42435;53.292;6.000;2023-07-22T02:00:15;13.50;80.80
56538;DHT22;42435;53.292;6.000;2023-07-22T02:02:41;13.40;80.90
56538;DHT22;42435;53.292;6.000;2023-07-22T02:05:10;13.40;80.90
56538;DHT22;42435;53.292;6.000;2023-07-22T02:07:36;13.40;80.90
56538;DHT22;42435;53.292;6.000;2023-07-22T02:10:01;13.40;81.00
56538;DHT22;42435;53.292;6.000;2023-07-22T02:12:28;13.30;81.10
56538;DHT22;42435;53.292;6.000;2023-07-22T02:14:54;13.30;81.20
56538;DHT22;42435;53.292;6.000;2023-07-22T02:17:19;13.30;81.20
56538;DHT22;42435;53.292;6.000;2023-07-22T02:19:45;13.20;81.20
56538;DHT22;42435;53.292;6.000;2023-07-22T02:22:11;13.20;81.20
56538;DHT22;42435;53.292;6.000;2023-07-22T02:24:38;13.20;81.10
56538;DHT22;42435;53.292;6.000;2023-07-22T02:27:04;13.20;81.00
56538;DHT22;42435;53.292;6.000;2023-07-22T02:29:29;13.20;81.00
56538;DHT22;42435;53.292;6.000;2023-07-22T02:31:56;13.20;81.10
56538;DHT22;42435;53.292;6.000;2023-07-22T02:34:23;13.20;81.30
56538;DHT22;42435;53.292;6.000;2023-07-22T02:36:48;13.20;81.50
56538;DHT22;42435;53.292;6.000;2023-07-22T02:39:14;13.30;81.80
56538;DHT22;42435;53.292;6.000;2023-07-22T02:41:40;13.30;81.90
56538;DHT22;42435;53.292;6.000;2023-07-22T02:44:05;13.30;82.00
56538;DHT22;42435;53.292;6.000;2023-07-22T02:46:31;13.40;82.10
56538;DHT22;42435;53.292;6.000;2023-07-22T02:48:57;13.40;82.00
56538;DHT22;42435;53.292;6.000;2023-07-22T02:51:24;13.40;81.80
56538;DHT22;42435;53.292;6.000;2023-07-22T02:53:50;13.40;81.60
56538;DHT22;42435;53.292;6.000;2023-07-22T02:56:15;13.40;81.60
56538;DHT22;42435;53.292;6.000;2023-07-22T02:58:41;13.40;81.60
56538;DHT22;42435;53.292;6.000;2023-07-22T03:01:07;13.40;81.70
56538;DHT22;42435;53.292;6.000;2023-07-22T03:03:34;13.40;81.80
56538;DHT22;42435;53.292;6.000;2023-07-22T03:06:01;13.30;81.70
56538;DHT22;42435;53.292;6.000;2023-07-22T03:08:30;13.40;81.60
56538;DHT22;42435;53.292;6.000;2023-07-22T03:10:55;13.30;81.60
56538;DHT22;42435;53.292;6.000;2023-07-22T03:13:21;13.30;81.50
56538;DHT22;42435;53.292;6.000;2023-07-22T03:15:47;13.20;81.40
56538;DHT22;42435;53.292;6.000;2023-07-22T03:18:13;13.20;81.50
56538;DHT22;42435;53.292;6.000;2023-07-22T03:20:39;13.20;81.40
56538;DHT22;42435;53.292;6.000;2023-07-22T03:23:05;13.10;81.50
56538;DHT22;42435;53.292;6.000;2023-07-22T03:25:32;13.10;81.40
56538;DHT22;42435;53.292;6.000;2023-07-22T03:28:07;13.10;81.50
56538;DHT22;42435;53.292;6.000;2023-07-22T03:30:33;13.10;81.60
56538;DHT22;42435;53.292;6.000;2023-07-22T03:33:00;13.00;81.50
56538;DHT22;42435;53.292;6.000;2023-07-22T03:35:27;13.00;81.60
56538;DHT22;42435;53.292;6.000;2023-07-22T03:37:53;13.00;81.60
56538;DHT22;42435;53.292;6.000;2023-07-22T03:40:19;13.00;81.60
56538;DHT22;42435;53.292;6.000;2023-07-22T03:42:49;13.00;81.60
56538;DHT22;42435;53.292;6.000;2023-07-22T03:45:16;13.00;81.60
56538;DHT22;42435;53.292;6.000;2023-07-22T03:47:44;13.00;81.60
56538;DHT22;42435;53.292;6.000;2023-07-22T03:50:10;13.00;81.70
56538;DHT22;42435;53.292;6.000;2023-07-22T03:52:35;13.00;81.60
56538;DHT22;42435;53.292;6.000;2023-07-22T03:55:01;13.00;81.60
56538;DHT22;42435;53.292;6.000;2023-07-22T03:57:28;13.00;81.50
56538;DHT22;42435;53.292;6.000;2023-07-22T03:59:57;13.00;81.50
56538;DHT22;42435;53.292;6.000;2023-07-22T04:02:23;13.00;81.50
56538;DHT22;42435;53.292;6.000;2023-07-22T04:04:52;13.10;81.50
56538;DHT22;42435;53.292;6.000;2023-07-22T04:07:18;13.10;81.40
56538;DHT22;42435;53.292;6.000;2023-07-22T04:09:44;13.20;81.30
56538;DHT22;42435;53.292;6.000;2023-07-22T04:12:10;13.20;81.30
56538;DHT22;42435;53.292;6.000;2023-07-22T04:14:36;13.20;81.30
56538;DHT22;42435;53.292;6.000;2023-07-22T04:17:02;13.20;81.30
56538;DHT22;42435;53.292;6.000;2023-07-22T04:19:29;13.30;81.40
56538;DHT22;42435;53.292;6.000;2023-07-22T04:21:56;13.30;81.40
56538;DHT22;42435;53.292;6.000;2023-07-22T04:24:22;13.30;81.40
56538;DHT22;42435;53.292;6.000;2023-07-22T04:26:48;13.40;81.40
56538;DHT22;42435;53.292;6.000;2023-07-22T04:29:14;13.40;81.30
56538;DHT22;42435;53.292;6.000;2023-07-22T04:31:39;13.40;81.30
56538;DHT22;42435;53.292;6.000;2023-07-22T04:34:05;13.40;81.30
56538;DHT22;42435;53.292;6.000;2023-07-22T04:36:31;13.50;81.30
56538;DHT22;42435;53.292;6.000;2023-07-22T04:38:57;13.60;81.30
56538;DHT22;42435;53.292;6.000;2023-07-22T04:41:23;13.60;81.30
56538;DHT22;42435;53.292;6.000;2023-07-22T04:43:49;13.60;81.40
56538;DHT22;42435;53.292;6.000;2023-07-22T04:46:16;13.70;81.30
56538;DHT22;42435;53.292;6.000;2023-07-22T04:48:41;13.80;81.40
56538;DHT22;42435;53.292;6.000;2023-07-22T04:51:07;13.80;81.40
56538;DHT22;42435;53.292;6.000;2023-07-22T04:53:33;13.90;81.40
56538;DHT22;42435;53.292;6.000;2023-07-22T04:55:58;13.90;81.40
56538;DHT22;42435;53.292;6.000;2023-07-22T04:58:24;14.00;81.40
56538;DHT22;42435;53.292;6.000;2023-07-22T05:00:50;14.10;81.40
56538;DHT22;42435;53.292;6.000;2023-07-22T05:03:16;14.20;81.50
56538;DHT22;42435;53.292;6.000;2023-07-22T05:05:41;14.20;81.50
56538;DHT22;42435;53.292;6.000;2023-07-22T05:08:07;14.40;81.50
56538;DHT22;42435;53.292;6.000;2023-07-22T05:10:33;14.40;81.50
56538;DHT22;42435;53.292;6.000;2023-07-22T05:12:59;14.50;81.50
56538;DHT22;42435;53.292;6.000;2023-07-22T05:15:25;14.60;81.50
56538;DHT22;42435;53.292;6.000;2023-07-22T05:17:51;14.60;81.40
56538;DHT22;42435;53.292;6.000;2023-07-22T05:20:16;14.70;81.40
56538;DHT22;42435;53.292;6.000;2023-07-22T05:22:42;14.80;81.40
56538;DHT22;42435;53.292;6.000;2023-07-22T05:25:08;14.90;81.40
56538;DHT22;42435;53.292;6.000;2023-07-22T05:27:35;14.90;81.40
56538;DHT22;42435;53.292;6.000;2023-07-22T05:30:01;14.90;81.40
56538;DHT22;42435;53.292;6.000;2023-07-22T05:32:30;15.00;81.40
56538;DHT22;42435;53.292;6.000;2023-07-22T05:34:56;15.10;81.50
56538;DHT22;42435;53.292;6.000;2023-07-22T05:37:25;15.10;81.40
56538;DHT22;42435;53.292;6.000;2023-07-22T05:39:51;15.20;81.40
56538;DHT22;42435;53.292;6.000;2023-07-22T05:42:17;15.20;81.30
56538;DHT22;42435;53.292;6.000;2023-07-22T05:44:43;15.20;81.30
56538;DHT22;42435;53.292;6.000;2023-07-22T05:47:08;15.30;81.30
56538;DHT22;42435;53.292;6.000;2023-07-22T05:49:34;15.40;81.30
56538;DHT22;42435;53.292;6.000;2023-07-22T05:52:00;15.40;81.30
56538;DHT22;42435;53.292;6.000;2023-07-22T05:54:25;15.40;81.30
56538;DHT22;42435;53.292;6.000;2023-07-22T05:56:51;15.40;81.30
56538;DHT22;42435;53.292;6.000;2023-07-22T05:59:17;15.50;81.40
56538;DHT22;42435;53.292;6.000;2023-07-22T06:01:43;15.50;81.40
56538;DHT22;42435;53.292;6.000;2023-07-22T06:04:08;15.50;81.50
56538;DHT22;42435;53.292;6.000;2023-07-22T06:06:35;15.50;81.50
56538;DHT22;42435;53.292;6.000;2023-07-22T06:09:00;15.60;81.40
56538;DHT22;42435;53.292;6.000;2023-07-22T06:11:26;15.70;81.40
56538;DHT22;42435;53.292;6.000;2023-07-22T06:13:52;15.80;81.40
56538;DHT22;42435;53.292;6.000;2023-07-22T06:16:17;15.80;81.30
56538;DHT22;42435;53.292;6.000;2023-07-22T06:18:43;15.90;81.30
56538;DHT22;42435;53.292;6.000;2023-07-22T06:21:08;16.00;81.00
56538;DHT22;42435;53.292;6.000;2023-07-22T06:23:34;16.00;80.80
56538;DHT22;42435;53.292;6.000;2023-07-22T06:26:00;16.10;80.60
56538;DHT22;42435;53.292;6.000;2023-07-22T06:28:25;16.20;80.60
56538;DHT22;42435;53.292;6.000;2023-07-22T06:30:51;16.20;80.60
56538;DHT22;42435;53.292;6.000;2023-07-22T06:33:16;16.20;80.60
56538;DHT22;42435;53.292;6.000;2023-07-22T06:35:42;16.30;80.60
56538;DHT22;42435;53.292;6.000;2023-07-22T06:38:08;16.30;80.70
56538;DHT22;42435;53.292;6.000;2023-07-22T06:40:34;16.40;80.70
56538;DHT22;42435;53.292;6.000;2023-07-22T06:42:59;16.40;80.70
56538;DHT22;42435;53.292;6.000;2023-07-22T06:45:25;16.50;80.80
56538;DHT22;42435;53.292;6.000;2023-07-22T06:47:50;16.60;80.80
56538;DHT22;42435;53.292;6.000;2023-07-22T06:50:16;16.70;80.80
56538;DHT22;42435;53.292;6.000;2023-07-22T06:52:42;16.80;80.80
56538;DHT22;42435;53.292;6.000;2023-07-22T06:55:07;16.90;80.60
56538;DHT22;42435;53.292;6.000;2023-07-22T06:57:33;16.90;80.30
56538;DHT22;42435;53.292;6.000;2023-07-22T06:59:59;17.00;80.30
56538;DHT22;42435;53.292;6.000;2023-07-22T07:02:25;17.10;80.30
56538;DHT22;42435;53.292;6.000;2023-07-22T07:04:50;17.10;80.00
56538;DHT22;42435;53.292;6.000;2023-07-22T07:07:16;17.10;79.60
56538;DHT22;42435;53.292;6.000;2023-07-22T07:09:43;17.10;79.40
56538;DHT22;42435;53.292;6.000;2023-07-22T07:12:09;17.20;79.40
56538;DHT22;42435;53.292;6.000;2023-07-22T07:14:35;17.20;79.40
56538;DHT22;42435;53.292;6.000;2023-07-22T07:17:01;17.20;79.40
56538;DHT22;42435;53.292;6.000;2023-07-22T07:19:28;17.20;79.30
56538;DHT22;42435;53.292;6.000;2023-07-22T07:21:53;17.30;79.30
56538;DHT22;42435;53.292;6.000;2023-07-22T07:24:19;17.40;79.30
56538;DHT22;42435;53.292;6.000;2023-07-22T07:26:45;17.40;79.50
56538;DHT22;42435;53.292;6.000;2023-07-22T07:29:10;17.40;79.40
56538;DHT22;42435;53.292;6.000;2023-07-22T07:31:37;17.50;79.50
56538;DHT22;42435;53.292;6.000;2023-07-22T07:34:03;17.50;79.40
56538;DHT22;42435;53.292;6.000;2023-07-22T07:36:33;17.50;79.40
56538;DHT22;42435;53.292;6.000;2023-07-22T07:38:59;17.50;79.30
56538;DHT22;42435;53.292;6.000;2023-07-22T07:41:24;17.50;79.10
56538;DHT22;42435;53.292;6.000;2023-07-22T07:43:50;17.40;79.00
56538;DHT22;42435;53.292;6.000;2023-07-22T07:46:27;17.30;79.10
56538;DHT22;42435;53.292;6.000;2023-07-22T07:48:57;17.30;79.00
56538;DHT22;42435;53.292;6.000;2023-07-22T07:51:24;17.20;79.10
56538;DHT22;42435;53.292;6.000;2023-07-22T07:53:52;17.30;79.50
56538;DHT22;42435;53.292;6.000;2023-07-22T07:56:18;17.40;80.00
56538;DHT22;42435;53.292;6.000;2023-07-22T07:58:45;17.50;80.10
56538;DHT22;42435;53.292;6.000;2023-07-22T08:01:11;17.80;79.60
56538;DHT22;42435;53.292;6.000;2023-07-22T08:03:39;17.90;79.30
56538;DHT22;42435;53.292;6.000;2023-07-22T08:06:05;18.00;79.20
56538;DHT22;42435;53.292;6.000;2023-07-22T08:08:32;18.00;79.10
56538;DHT22;42435;53.292;6.000;2023-07-22T08:11:09;18.20;79.40
56538;DHT22;42435;53.292;6.000;2023-07-22T08:13:38;18.30;79.30
56538;DHT22;42435;53.292;6.000;2023-07-22T08:16:05;18.40;79.10
56538;DHT22;42435;53.292;6.000;2023-07-22T08:18:32;18.60;78.70
56538;DHT22;42435;53.292;6.000;2023-07-22T08:20:58;18.70;78.50
56538;DHT22;42435;53.292;6.000;2023-07-22T08:23:24;18.80;77.90
56538;DHT22;42435;53.292;6.000;2023-07-22T08:25:50;18.90;77.40
56538;DHT22;42435;53.292;6.000;2023-07-22T08:28:16;18.90;76.70
56538;DHT22;42435;53.292;6.000;2023-07-22T08:30:42;19.10;76.20
56538;DHT22;42435;53.292;6.000;2023-07-22T08:33:11;19.10;75.80
56538;DHT22;42435;53.292;6.000;2023-07-22T08:35:38;19.20;75.60
56538;DHT22;42435;53.292;6.000;2023-07-22T08:38:05;19.30;75.10
56538;DHT22;42435;53.292;6.000;2023-07-22T08:40:34;19.40;74.90
56538;DHT22;42435;53.292;6.000;2023-07-22T08:43:03;19.40;74.40
56538;DHT22;42435;53.292;6.000;2023-07-22T08:45:31;19.40;74.50
56538;DHT22;42435;53.292;6.000;2023-07-22T08:47:58;19.40;74.40
56538;DHT22;42435;53.292;6.000;2023-07-22T08:50:29;19.40;74.00
56538;DHT22;42435;53.292;6.000;2023-07-22T08:52:55;19.40;73.50
56538;DHT22;42435;53.292;6.000;2023-07-22T08:55:20;19.30;73.50
56538;DHT22;42435;53.292;6.000;2023-07-22T08:57:48;19.30;73.50
56538;DHT22;42435;53.292;6.000;2023-07-22T09:00:16;19.30;73.10
56538;DHT22;42435;53.292;6.000;2023-07-22T09:02:42;19.20;73.10
56538;DHT22;42435;53.292;6.000;2023-07-22T09:05:08;19.10;73.40
56538;DHT22;42435;53.292;6.000;2023-07-22T09:07:39;19.00;73.10
56538;DHT22;42435;53.292;6.000;2023-07-22T09:10:08;19.00;73.30
56538;DHT22;42435;53.292;6.000;2023-07-22T09:12:35;18.90;73.20
56538;DHT22;42435;53.292;6.000;2023-07-22T09:15:14;18.90;72.70
56538;DHT22;42435;53.292;6.000;2023-07-22T09:17:41;18.90;72.10
56538;DHT22;42435;53.292;6.000;2023-07-22T09:20:07;18.80;72.60
56538;DHT22;42435;53.292;6.000;2023-07-22T09:22:34;18.80;72.40
56538;DHT22;42435;53.292;6.000;2023-07-22T09:27:53;18.70;73.10
56538;DHT22;42435;53.292;6.000;2023-07-22T09:30:33;18.70;73.00
56538;DHT22;42435;53.292;6.000;2023-07-22T09:33:02;18.70;73.00
56538;DHT22;42435;53.292;6.000;2023-07-22T09:38:07;18.70;73.20
56538;DHT22;42435;53.292;6.000;2023-07-22T09:40:33;18.70;72.80
56538;DHT22;42435;53.292;6.000;2023-07-22T09:43:01;18.60;72.30
56538;DHT22;42435;53.292;6.000;2023-07-22T09:45:31;18.60;72.00
56538;DHT22;42435;53.292;6.000;2023-07-22T09:47:58;18.50;71.90
56538;DHT22;42435;53.292;6.000;2023-07-22T09:50:27;18.50;71.70
56538;DHT22;42435;53.292;6.000;2023-07-22T09:52:54;18.50;71.40
56538;DHT22;42435;53.292;6.000;2023-07-22T09:55:25;18.40;71.30
56538;DHT22;42435;53.292;6.000;2023-07-22T09:58:02;18.40;71.50
56538;DHT22;42435;53.292;6.000;2023-07-22T10:00:31;18.20;71.90
56538;DHT22;42435;53.292;6.000;2023-07-22T10:03:02;18.20;72.30
56538;DHT22;42435;53.292;6.000;2023-07-22T10:05:33;18.20;72.50
56538;DHT22;42435;53.292;6.000;2023-07-22T10:07:59;18.20;72.70
56538;DHT22;42435;53.292;6.000;2023-07-22T10:12:56;18.20;73.20
56538;DHT22;42435;53.292;6.000;2023-07-22T10:15:25;18.10;73.20
56538;DHT22;42435;53.292;6.000;2023-07-22T10:17:52;18.10;73.40
56538;DHT22;42435;53.292;6.000;2023-07-22T10:20:19;18.10;73.50
56538;DHT22;42435;53.292;6.000;2023-07-22T10:22:46;18.10;73.70
56538;DHT22;42435;53.292;6.000;2023-07-22T10:25:15;18.10;73.80
56538;DHT22;42435;53.292;6.000;2023-07-22T10:27:42;18.10;73.70
56538;DHT22;42435;53.292;6.000;2023-07-22T10:30:12;18.00;73.70
56538;DHT22;42435;53.292;6.000;2023-07-22T10:32:46;18.00;74.00
56538;DHT22;42435;53.292;6.000;2023-07-22T10:35:23;18.00;74.30
56538;DHT22;42435;53.292;6.000;2023-07-22T10:38:13;18.00;74.70
56538;DHT22;42435;53.292;6.000;2023-07-22T10:40:48;18.00;75.10
56538;DHT22;42435;53.292;6.000;2023-07-22T10:43:16;18.00;75.00
56538;DHT22;42435;53.292;6.000;2023-07-22T10:45:48;18.00;75.00
56538;DHT22;42435;53.292;6.000;2023-07-22T10:48:18;18.00;75.10
56538;DHT22;42435;53.292;6.000;2023-07-22T10:50:52;18.00;74.90
56538;DHT22;42435;53.292;6.000;2023-07-22T10:53:28;18.00;75.00
56538;DHT22;42435;53.292;6.000;2023-07-22T11:12:05;18.10;75.90
56538;DHT22;42435;53.292;6.000;2023-07-22T11:14:37;18.10;76.00
56538;DHT22;42435;53.292;6.000;2023-07-22T11:17:04;18.20;76.00
56538;DHT22;42435;53.292;6.000;2023-07-22T11:19:31;18.20;76.10
56538;DHT22;42435;53.292;6.000;2023-07-22T11:21:57;18.40;75.90
56538;DHT22;42435;53.292;6.000;2023-07-22T11:24:24;18.40;75.90
56538;DHT22;42435;53.292;6.000;2023-07-22T11:26:50;18.50;76.20
56538;DHT22;42435;53.292;6.000;2023-07-22T11:29:17;18.60;76.20
56538;DHT22;42435;53.292;6.000;2023-07-22T11:31:44;18.60;76.10
56538;DHT22;42435;53.292;6.000;2023-07-22T11:34:15;18.60;76.00
56538;DHT22;42435;53.292;6.000;2023-07-22T11:36:41;18.60;76.00
56538;DHT22;42435;53.292;6.000;2023-07-22T11:39:12;18.60;76.30
56538;DHT22;42435;53.292;6.000;2023-07-22T11:41:39;18.60;76.90
56538;DHT22;42435;53.292;6.000;2023-07-22T11:44:10;18.60;76.90
56538;DHT22;42435;53.292;6.000;2023-07-22T11:46:58;18.60;76.80
56538;DHT22;42435;53.292;6.000;2023-07-22T11:49:24;18.70;77.00
56538;DHT22;42435;53.292;6.000;2023-07-22T11:51:53;18.70;76.60
56538;DHT22;42435;53.292;6.000;2023-07-22T11:54:21;18.70;76.70
56538;DHT22;42435;53.292;6.000;2023-07-22T11:56:46;18.80;77.10
56538;DHT22;42435;53.292;6.000;2023-07-22T11:59:12;18.90;77.00
56538;DHT22;42435;53.292;6.000;2023-07-22T12:01:38;19.00;76.90
56538;DHT22;42435;53.292;6.000;2023-07-22T12:04:12;19.10;77.10
56538;DHT22;42435;53.292;6.000;2023-07-22T12:06:39;19.20;77.30
56538;DHT22;42435;53.292;6.000;2023-07-22T12:09:07;19.20;77.00
56538;DHT22;42435;53.292;6.000;2023-07-22T12:11:37;19.30;77.00
56538;DHT22;42435;53.292;6.000;2023-07-22T12:14:12;19.40;76.40
56538;DHT22;42435;53.292;6.000;2023-07-22T12:16:40;19.50;76.00
56538;DHT22;42435;53.292;6.000;2023-07-22T12:19:07;19.60;76.00
56538;DHT22;42435;53.292;6.000;2023-07-22T12:21:33;19.60;75.90
56538;DHT22;42435;53.292;6.000;2023-07-22T12:23:59;19.80;75.80
56538;DHT22;42435;53.292;6.000;2023-07-22T12:26:25;19.90;76.10
56538;DHT22;42435;53.292;6.000;2023-07-22T12:28:51;19.90;75.80
56538;DHT22;42435;53.292;6.000;2023-07-22T12:31:17;20.00;75.50
56538;DHT22;42435;53.292;6.000;2023-07-22T12:33:43;20.10;74.70
56538;DHT22;42435;53.292;6.000;2023-07-22T12:36:09;20.20;74.00
56538;DHT22;42435;53.292;6.000;2023-07-22T12:38:35;20.30;74.00
56538;DHT22;42435;53.292;6.000;2023-07-22T12:41:01;20.40;73.90
56538;DHT22;42435;53.292;6.000;2023-07-22T12:43:29;20.40;73.50
56538;DHT22;42435;53.292;6.000;2023-07-22T12:45:58;20.40;73.00
56538;DHT22;42435;53.292;6.000;2023-07-22T12:48:24;20.40;72.60
56538;DHT22;42435;53.292;6.000;2023-07-22T12:50:50;20.30;72.50
56538;DHT22;42435;53.292;6.000;2023-07-22T12:53:16;20.20;72.40
56538;DHT22;42435;53.292;6.000;2023-07-22T12:55:42;20.10;72.70
56538;DHT22;42435;53.292;6.000;2023-07-22T12:58:07;20.00;73.40
56538;DHT22;42435;53.292;6.000;2023-07-22T13:00:33;19.90;73.50
56538;DHT22;42435;53.292;6.000;2023-07-22T13:02:59;19.70;73.70
56538;DHT22;42435;53.292;6.000;2023-07-22T13:05:24;19.40;74.00
56538;DHT22;42435;53.292;6.000;2023-07-22T13:07:50;19.30;74.60
56538;DHT22;42435;53.292;6.000;2023-07-22T13:10:16;19.10;75.30
56538;DHT22;42435;53.292;6.000;2023-07-22T13:12:44;19.10;76.00
56538;DHT22;42435;53.292;6.000;2023-07-22T13:15:10;19.00;76.40
56538;DHT22;42435;53.292;6.000;2023-07-22T13:17:35;19.00;76.70
56538;DHT22;42435;53.292;6.000;2023-07-22T13:20:02;19.00;76.60
56538;DHT22;42435;53.292;6.000;2023-07-22T13:22:32;19.00;76.50
56538;DHT22;42435;53.292;6.000;2023-07-22T13:24:58;18.90;76.10
56538;DHT22;42435;53.292;6.000;2023-07-22T13:27:23;18.80;75.80
56538;DHT22;42435;53.292;6.000;2023-07-22T13:29:49;18.70;75.90
56538;DHT22;42435;53.292;6.000;2023-07-22T13:32:14;18.60;76.00
56538;DHT22;42435;53.292;6.000;2023-07-22T13:34:40;18.40;76.30
56538;DHT22;42435;53.292;6.000;2023-07-22T13:37:05;18.40;76.70
56538;DHT22;42435;53.292;6.000;2023-07-22T13:39:32;18.40;77.00
56538;DHT22;42435;53.292;6.000;2023-07-22T13:41:57;18.40;77.10
56538;DHT22;42435;53.292;6.000;2023-07-22T13:44:23;18.40;77.10
56538;DHT22;42435;53.292;6.000;2023-07-22T13:46:48;18.40;77.20
56538;DHT22;42435;53.292;6.000;2023-07-22T13:49:14;18.50;77.00
56538;DHT22;42435;53.292;6.000;2023-07-22T13:51:40;18.50;76.80
56538;DHT22;42435;53.292;6.000;2023-07-22T13:54:06;18.50;76.70
56538;DHT22;42435;53.292;6.000;2023-07-22T13:56:32;18.50;76.50
56538;DHT22;42435;53.292;6.000;2023-07-22T13:58:58;18.50;76.50
56538;DHT22;42435;53.292;6.000;2023-07-22T14:01:26;18.50;76.60
56538;DHT22;42435;53.292;6.000;2023-07-22T14:03:53;18.50;76.60
56538;DHT22;42435;53.292;6.000;2023-07-22T14:06:18;18.50;76.60
56538;DHT22;42435;53.292;6.000;2023-07-22T14:08:44;18.60;76.30
56538;DHT22;42435;53.292;6.000;2023-07-22T14:11:09;18.60;76.30
56538;DHT22;42435;53.292;6.000;2023-07-22T14:13:35;18.60;76.20
56538;DHT22;42435;53.292;6.000;2023-07-22T14:16:02;18.50;76.10
56538;DHT22;42435;53.292;6.000;2023-07-22T14:18:28;18.50;76.10
56538;DHT22;42435;53.292;6.000;2023-07-22T14:20:54;18.50;75.90
56538;DHT22;42435;53.292;6.000;2023-07-22T14:23:20;18.50;75.80
56538;DHT22;42435;53.292;6.000;2023-07-22T14:25:45;18.40;75.90
56538;DHT22;42435;53.292;6.000;2023-07-22T14:28:11;18.40;75.90
56538;DHT22;42435;53.292;6.000;2023-07-22T14:30:36;18.40;76.00
56538;DHT22;42435;53.292;6.000;2023-07-22T14:33:02;18.30;76.20
56538;DHT22;42435;53.292;6.000;2023-07-22T14:35:27;18.40;76.40
56538;DHT22;42435;53.292;6.000;2023-07-22T14:37:53;18.40;76.70
56538;DHT22;42435;53.292;6.000;2023-07-22T14:40:19;18.40;77.00
56538;DHT22;42435;53.292;6.000;2023-07-22T14:42:44;18.40;77.00
56538;DHT22;42435;53.292;6.000;2023-07-22T14:45:10;18.40;77.00
56538;DHT22;42435;53.292;6.000;2023-07-22T14:47:35;18.50;77.00
56538;DHT22;42435;53.292;6.000;2023-07-22T14:50:01;18.50;77.00
56538;DHT22;42435;53.292;6.000;2023-07-22T14:52:29;18.50;77.00
56538;DHT22;42435;53.292;6.000;2023-07-22T14:54:55;18.60;77.00
56538;DHT22;42435;53.292;6.000;2023-07-22T14:57:20;18.60;77.00
56538;DHT22;42435;53.292;6.000;2023-07-22T14:59:46;18.70;76.80
56538;DHT22;42435;53.292;6.000;2023-07-22T15:02:12;18.70;76.80
56538;DHT22;42435;53.292;6.000;2023-07-22T15:04:37;18.80;76.50
56538;DHT22;42435;53.292;6.000;2023-07-22T15:07:03;18.80;76.40
56538;DHT22;42435;53.292;6.000;2023-07-22T15:09:29;18.90;76.30
56538;DHT22;42435;53.292;6.000;2023-07-22T15:11:54;18.90;76.10
56538;DHT22;42435;53.292;6.000;2023-07-22T15:14:20;18.90;76.00
56538;DHT22;42435;53.292;6.000;2023-07-22T15:16:45;18.90;75.70
56538;DHT22;42435;53.292;6.000;2023-07-22T15:19:11;18.90;74.90
56538;DHT22;42435;53.292;6.000;2023-07-22T15:21:37;18.90;74.40
56538;DHT22;42435;53.292;6.000;2023-07-22T15:24:02;18.90;73.90
56538;DHT22;42435;53.292;6.000;2023-07-22T15:26:28;18.80;73.90
56538;DHT22;42435;53.292;6.000;2023-07-22T15:28:54;18.80;73.90
56538;DHT22;42435;53.292;6.000;2023-07-22T15:31:20;18.70;74.00
56538;DHT22;42435;53.292;6.000;2023-07-22T15:33:46;18.70;74.10
56538;DHT22;42435;53.292;6.000;2023-07-22T15:36:13;18.60;73.90
56538;DHT22;42435;53.292;6.000;2023-07-22T15:38:39;18.60;73.60
56538;DHT22;42435;53.292;6.000;2023-07-22T15:41:04;18.50;73.50
56538;DHT22;42435;53.292;6.000;2023-07-22T15:43:30;18.50;73.50
56538;DHT22;42435;53.292;6.000;2023-07-22T15:45:56;18.50;73.40
56538;DHT22;42435;53.292;6.000;2023-07-22T15:48:21;18.40;73.60
56538;DHT22;42435;53.292;6.000;2023-07-22T15:50:47;18.40;73.80